sensor_id;sensor_type;location;lat;lon;timestamp;P1;durP1;ratioP1;P2;durP2;ratioP2
9801;SDS011;4940;50.900;4.672;2023-03-08T00:01:16;44.20;;;39.63;;
9801;SDS011;4940;50.900;4.672;2023-03-08T00:03:45;42.03;;;37.87;;
9801;SDS011;4940;50.900;4.672;2023-03-08T00:06:13;41.77;;;37.20;;
9801;SDS011;4940;50.900;4.672;2023-03-08T00:08:41;44.37;;;38.37;;
9801;SDS011;4940;50.900;4.672;2023-03-08T00:11:09;43.13;;;39.00;;
9801;SDS011;4940;50.900;4.672;2023-03-08T00:13:37;42.67;;;38.23;;
9801;SDS011;4940;50.900;4.672;2023-03-08T00:16:06;46.30;;;39.20;;
9801;SDS011;4940;50.900;4.672;2023-03-08T00:18:36;43.33;;;39.17;;
9801;SDS011;4940;50.900;4.672;2023-03-08T00:21:05;42.00;;;37.57;;
9801;SDS011;4940;50.900;4.672;2023-03-08T00:23:34;42.73;;;38.27;;
9801;SDS011;4940;50.900;4.672;2023-03-08T00:26:01;42.30;;;38.07;;
9801;SDS011;4940;50.900;4.672;2023-03-08T00:28:29;43.77;;;39.63;;
9801;SDS011;4940;50.900;4.672;2023-03-08T00:30:56;43.93;;;39.67;;
9801;SDS011;4940;50.900;4.672;2023-03-08T00:33:24;43.60;;;39.33;;
9801;SDS011;4940;50.900;4.672;2023-03-08T00:35:55;45.13;;;40.73;;
9801;SDS011;4940;50.900;4.672;2023-03-08T00:38:24;47.37;;;42.63;;
9801;SDS011;4940;50.900;4.672;2023-03-08T00:40:52;44.93;;;40.63;;
9801;SDS011;4940;50.900;4.672;2023-03-08T00:43:19;47.43;;;40.10;;
9801;SDS011;4940;50.900;4.672;2023-03-08T00:45:46;44.90;;;40.17;;
9801;SDS011;4940;50.900;4.672;2023-03-08T00:48:14;42.60;;;38.20;;
9801;SDS011;4940;50.900;4.672;2023-03-08T00:50:41;44.07;;;38.47;;
9801;SDS011;4940;50.900;4.672;2023-03-08T00:53:09;41.37;;;37.17;;
9801;SDS011;4940;50.900;4.672;2023-03-08T00:55:39;44.70;;;40.43;;
9801;SDS011;4940;50.900;4.672;2023-03-08T00:58:13;45.43;;;40.87;;
9801;SDS011;4940;50.900;4.672;2023-03-08T01:00:40;42.93;;;38.53;;
9801;SDS011;4940;50.900;4.672;2023-03-08T01:03:08;40.97;;;36.63;;
9801;SDS011;4940;50.900;4.672;2023-03-08T01:05:38;45.70;;;39.40;;
9801;SDS011;4940;50.900;4.672;2023-03-08T01:08:05;40.87;;;36.67;;
9801;SDS011;4940;50.900;4.672;2023-03-08T01:10:33;40.67;;;36.57;;
9801;SDS011;4940;50.900;4.672;2023-03-08T01:13:01;41.33;;;37.23;;
9801;SDS011;4940;50.900;4.672;2023-03-08T01:15:30;40.97;;;36.83;;
9801;SDS011;4940;50.900;4.672;2023-03-08T01:18:01;38.33;;;34.13;;
9801;SDS011;4940;50.900;4.672;2023-03-08T01:20:28;39.37;;;35.33;;
9801;SDS011;4940;50.900;4.672;2023-03-08T01:22:56;42.53;;;37.87;;
9801;SDS011;4940;50.900;4.672;2023-03-08T01:25:23;39.50;;;35.27;;
9801;SDS011;4940;50.900;4.672;2023-03-08T01:27:51;41.10;;;36.63;;
9801;SDS011;4940;50.900;4.672;2023-03-08T01:30:19;39.60;;;35.70;;
9801;SDS011;4940;50.900;4.672;2023-03-08T01:32:47;39.93;;;36.47;;
9801;SDS011;4940;50.900;4.672;2023-03-08T01:35:14;42.90;;;38.63;;
9801;SDS011;4940;50.900;4.672;2023-03-08T01:37:42;42.47;;;38.10;;
9801;SDS011;4940;50.900;4.672;2023-03-08T01:40:10;40.97;;;37.00;;
9801;SDS011;4940;50.900;4.672;2023-03-08T01:42:40;42.77;;;38.37;;
9801;SDS011;4940;50.900;4.672;2023-03-08T01:48:09;40.60;;;36.57;;
9801;SDS011;4940;50.900;4.672;2023-03-08T01:50:38;39.37;;;35.63;;
9801;SDS011;4940;50.900;4.672;2023-03-08T01:53:05;41.20;;;37.17;;
9801;SDS011;4940;50.900;4.672;2023-03-08T01:55:33;41.47;;;37.50;;
9801;SDS011;4940;50.900;4.672;2023-03-08T01:58:00;38.53;;;34.93;;
9801;SDS011;4940;50.900;4.672;2023-03-08T02:00:28;41.57;;;37.17;;
9801;SDS011;4940;50.900;4.672;2023-03-08T02:02:56;39.87;;;36.17;;
9801;SDS011;4940;50.900;4.672;2023-03-08T02:05:27;37.77;;;33.90;;
9801;SDS011;4940;50.900;4.672;2023-03-08T02:07:55;40.27;;;36.43;;
9801;SDS011;4940;50.900;4.672;2023-03-08T02:10:23;39.10;;;35.37;;
9801;SDS011;4940;50.900;4.672;2023-03-08T02:12:50;40.77;;;36.90;;
9801;SDS011;4940;50.900;4.672;2023-03-08T02:15:18;40.93;;;36.97;;
9801;SDS011;4940;50.900;4.672;2023-03-08T02:17:46;39.87;;;35.93;;
9801;SDS011;4940;50.900;4.672;2023-03-08T02:20:15;40.00;;;36.10;;
9801;SDS011;4940;50.900;4.672;2023-03-08T02:22:48;40.33;;;36.50;;
9801;SDS011;4940;50.900;4.672;2023-03-08T02:25:18;39.50;;;35.67;;
9801;SDS011;4940;50.900;4.672;2023-03-08T02:27:46;39.57;;;35.73;;
9801;SDS011;4940;50.900;4.672;2023-03-08T02:30:15;39.27;;;35.77;;
9801;SDS011;4940;50.900;4.672;2023-03-08T02:32:49;38.67;;;35.23;;
9801;SDS011;4940;50.900;4.672;2023-03-08T02:35:17;39.50;;;35.60;;
9801;SDS011;4940;50.900;4.672;2023-03-08T02:37:44;36.63;;;33.27;;
9801;SDS011;4940;50.900;4.672;2023-03-08T02:40:13;37.23;;;33.97;;
9801;SDS011;4940;50.900;4.672;2023-03-08T02:42:40;37.83;;;34.53;;
9801;SDS011;4940;50.900;4.672;2023-03-08T02:45:08;35.17;;;32.17;;
9801;SDS011;4940;50.900;4.672;2023-03-08T02:47:36;35.13;;;31.77;;
9801;SDS011;4940;50.900;4.672;2023-03-08T02:50:03;34.47;;;31.47;;
9801;SDS011;4940;50.900;4.672;2023-03-08T02:52:31;34.00;;;30.93;;
9801;SDS011;4940;50.900;4.672;2023-03-08T02:54:59;34.43;;;31.37;;
9801;SDS011;4940;50.900;4.672;2023-03-08T02:57:28;36.10;;;33.10;;
9801;SDS011;4940;50.900;4.672;2023-03-08T02:59:55;36.73;;;33.73;;
9801;SDS011;4940;50.900;4.672;2023-03-08T03:02:23;36.93;;;34.00;;
9801;SDS011;4940;50.900;4.672;2023-03-08T03:04:50;34.40;;;31.67;;
9801;SDS011;4940;50.900;4.672;2023-03-08T03:07:17;32.70;;;30.10;;
9801;SDS011;4940;50.900;4.672;2023-03-08T03:09:45;35.80;;;32.87;;
9801;SDS011;4940;50.900;4.672;2023-03-08T03:12:12;35.83;;;32.93;;
9801;SDS011;4940;50.900;4.672;2023-03-08T03:14:41;34.73;;;32.10;;
9801;SDS011;4940;50.900;4.672;2023-03-08T03:17:08;33.63;;;30.77;;
9801;SDS011;4940;50.900;4.672;2023-03-08T03:19:36;37.83;;;34.60;;
9801;SDS011;4940;50.900;4.672;2023-03-08T03:22:03;37.13;;;33.73;;
9801;SDS011;4940;50.900;4.672;2023-03-08T03:24:31;33.60;;;30.70;;
9801;SDS011;4940;50.900;4.672;2023-03-08T03:26:58;34.13;;;31.27;;
9801;SDS011;4940;50.900;4.672;2023-03-08T03:29:26;32.90;;;30.30;;
9801;SDS011;4940;50.900;4.672;2023-03-08T03:31:54;33.50;;;30.57;;
9801;SDS011;4940;50.900;4.672;2023-03-08T03:34:22;33.93;;;30.63;;
9801;SDS011;4940;50.900;4.672;2023-03-08T03:36:50;35.10;;;31.90;;
9801;SDS011;4940;50.900;4.672;2023-03-08T03:39:17;36.73;;;33.77;;
9801;SDS011;4940;50.900;4.672;2023-03-08T03:41:45;34.03;;;31.10;;
9801;SDS011;4940;50.900;4.672;2023-03-08T03:44:12;32.97;;;29.97;;
9801;SDS011;4940;50.900;4.672;2023-03-08T03:46:39;32.50;;;29.83;;
9801;SDS011;4940;50.900;4.672;2023-03-08T03:49:08;32.73;;;29.73;;
9801;SDS011;4940;50.900;4.672;2023-03-08T03:51:36;32.27;;;29.67;;
9801;SDS011;4940;50.900;4.672;2023-03-08T03:54:03;30.77;;;28.27;;
9801;SDS011;4940;50.900;4.672;2023-03-08T03:56:30;32.47;;;29.70;;
9801;SDS011;4940;50.900;4.672;2023-03-08T03:58:58;30.50;;;27.83;;
9801;SDS011;4940;50.900;4.672;2023-03-08T04:01:26;30.27;;;27.30;;
9801;SDS011;4940;50.900;4.672;2023-03-08T04:03:55;31.23;;;28.13;;
9801;SDS011;4940;50.900;4.672;2023-03-08T04:06:25;30.23;;;27.73;;
9801;SDS011;4940;50.900;4.672;2023-03-08T04:08:53;29.43;;;26.97;;
9801;SDS011;4940;50.900;4.672;2023-03-08T04:11:22;29.90;;;27.87;;
9801;SDS011;4940;50.900;4.672;2023-03-08T04:13:51;29.67;;;27.37;;
9801;SDS011;4940;50.900;4.672;2023-03-08T04:16:19;29.10;;;26.97;;
9801;SDS011;4940;50.900;4.672;2023-03-08T04:18:51;28.93;;;27.00;;
9801;SDS011;4940;50.900;4.672;2023-03-08T04:21:19;28.67;;;26.63;;
9801;SDS011;4940;50.900;4.672;2023-03-08T04:23:48;28.10;;;25.97;;
9801;SDS011;4940;50.900;4.672;2023-03-08T04:26:16;31.10;;;28.80;;
9801;SDS011;4940;50.900;4.672;2023-03-08T04:28:43;31.77;;;29.87;;
9801;SDS011;4940;50.900;4.672;2023-03-08T04:31:12;32.77;;;30.40;;
9801;SDS011;4940;50.900;4.672;2023-03-08T04:33:39;29.27;;;27.37;;
9801;SDS011;4940;50.900;4.672;2023-03-08T04:36:07;30.17;;;28.23;;
9801;SDS011;4940;50.900;4.672;2023-03-08T04:38:34;27.97;;;25.97;;
9801;SDS011;4940;50.900;4.672;2023-03-08T04:41:03;26.73;;;25.07;;
9801;SDS011;4940;50.900;4.672;2023-03-08T04:43:36;27.70;;;25.90;;
9801;SDS011;4940;50.900;4.672;2023-03-08T04:46:03;30.40;;;28.50;;
9801;SDS011;4940;50.900;4.672;2023-03-08T04:48:31;26.47;;;24.93;;
9801;SDS011;4940;50.900;4.672;2023-03-08T04:50:58;28.33;;;26.50;;
9801;SDS011;4940;50.900;4.672;2023-03-08T04:53:27;27.73;;;26.00;;
9801;SDS011;4940;50.900;4.672;2023-03-08T04:55:56;31.23;;;29.27;;
9801;SDS011;4940;50.900;4.672;2023-03-08T04:58:26;28.97;;;27.17;;
9801;SDS011;4940;50.900;4.672;2023-03-08T05:00:53;29.70;;;27.80;;
9801;SDS011;4940;50.900;4.672;2023-03-08T05:03:21;25.20;;;23.50;;
9801;SDS011;4940;50.900;4.672;2023-03-08T05:05:50;26.80;;;24.73;;
9801;SDS011;4940;50.900;4.672;2023-03-08T05:08:19;24.80;;;23.13;;
9801;SDS011;4940;50.900;4.672;2023-03-08T05:10:47;27.63;;;25.97;;
9801;SDS011;4940;50.900;4.672;2023-03-08T05:13:14;25.57;;;23.97;;
9801;SDS011;4940;50.900;4.672;2023-03-08T05:15:43;25.73;;;24.13;;
9801;SDS011;4940;50.900;4.672;2023-03-08T05:18:10;27.03;;;25.33;;
9801;SDS011;4940;50.900;4.672;2023-03-08T05:20:37;27.20;;;25.50;;
9801;SDS011;4940;50.900;4.672;2023-03-08T05:23:05;27.33;;;25.63;;
9801;SDS011;4940;50.900;4.672;2023-03-08T05:25:32;28.07;;;26.33;;
9801;SDS011;4940;50.900;4.672;2023-03-08T05:27:59;27.67;;;25.97;;
9801;SDS011;4940;50.900;4.672;2023-03-08T05:30:27;26.77;;;25.00;;
9801;SDS011;4940;50.900;4.672;2023-03-08T05:32:56;26.50;;;24.80;;
9801;SDS011;4940;50.900;4.672;2023-03-08T05:35:23;25.97;;;23.97;;
9801;SDS011;4940;50.900;4.672;2023-03-08T05:37:51;27.40;;;25.63;;
9801;SDS011;4940;50.900;4.672;2023-03-08T05:40:18;29.33;;;27.40;;
9801;SDS011;4940;50.900;4.672;2023-03-08T05:42:46;28.13;;;26.23;;
9801;SDS011;4940;50.900;4.672;2023-03-08T05:45:13;28.50;;;26.70;;
9801;SDS011;4940;50.900;4.672;2023-03-08T05:47:41;30.33;;;28.27;;
9801;SDS011;4940;50.900;4.672;2023-03-08T05:50:10;29.50;;;27.57;;
9801;SDS011;4940;50.900;4.672;2023-03-08T05:52:38;30.77;;;28.77;;
9801;SDS011;4940;50.900;4.672;2023-03-08T05:55:06;31.63;;;29.63;;
9801;SDS011;4940;50.900;4.672;2023-03-08T05:57:34;34.27;;;32.07;;
9801;SDS011;4940;50.900;4.672;2023-03-08T06:00:02;33.90;;;31.80;;
9801;SDS011;4940;50.900;4.672;2023-03-08T06:02:30;34.23;;;32.03;;
9801;SDS011;4940;50.900;4.672;2023-03-08T06:04:57;33.67;;;31.60;;
9801;SDS011;4940;50.900;4.672;2023-03-08T06:07:26;33.70;;;31.50;;
9801;SDS011;4940;50.900;4.672;2023-03-08T06:09:53;28.10;;;25.87;;
9801;SDS011;4940;50.900;4.672;2023-03-08T06:12:20;28.07;;;26.23;;
9801;SDS011;4940;50.900;4.672;2023-03-08T06:14:48;29.67;;;27.53;;
9801;SDS011;4940;50.900;4.672;2023-03-08T06:17:16;29.87;;;27.80;;
9801;SDS011;4940;50.900;4.672;2023-03-08T06:19:44;30.77;;;28.87;;
9801;SDS011;4940;50.900;4.672;2023-03-08T06:22:14;31.10;;;28.90;;
9801;SDS011;4940;50.900;4.672;2023-03-08T06:24:43;33.73;;;31.63;;
9801;SDS011;4940;50.900;4.672;2023-03-08T06:27:13;32.40;;;30.00;;
9801;SDS011;4940;50.900;4.672;2023-03-08T06:29:41;34.30;;;32.07;;
9801;SDS011;4940;50.900;4.672;2023-03-08T06:32:09;32.80;;;30.80;;
9801;SDS011;4940;50.900;4.672;2023-03-08T06:34:36;35.80;;;33.50;;
9801;SDS011;4940;50.900;4.672;2023-03-08T06:37:03;27.47;;;25.60;;
9801;SDS011;4940;50.900;4.672;2023-03-08T06:39:31;31.47;;;29.47;;
9801;SDS011;4940;50.900;4.672;2023-03-08T06:42:00;26.67;;;24.77;;
9801;SDS011;4940;50.900;4.672;2023-03-08T06:44:27;27.83;;;26.03;;
9801;SDS011;4940;50.900;4.672;2023-03-08T06:46:55;28.73;;;26.63;;
9801;SDS011;4940;50.900;4.672;2023-03-08T06:49:23;28.57;;;26.67;;
9801;SDS011;4940;50.900;4.672;2023-03-08T06:51:50;26.00;;;24.30;;
9801;SDS011;4940;50.900;4.672;2023-03-08T06:54:18;27.30;;;25.57;;
9801;SDS011;4940;50.900;4.672;2023-03-08T06:56:46;28.80;;;26.73;;
9801;SDS011;4940;50.900;4.672;2023-03-08T06:59:14;28.20;;;26.20;;
9801;SDS011;4940;50.900;4.672;2023-03-08T07:01:42;28.93;;;27.03;;
9801;SDS011;4940;50.900;4.672;2023-03-08T07:04:09;28.23;;;26.23;;
9801;SDS011;4940;50.900;4.672;2023-03-08T07:06:37;29.13;;;27.13;;
9801;SDS011;4940;50.900;4.672;2023-03-08T07:09:04;27.53;;;25.53;;
9801;SDS011;4940;50.900;4.672;2023-03-08T07:11:31;27.77;;;25.63;;
9801;SDS011;4940;50.900;4.672;2023-03-08T07:13:59;27.87;;;25.73;;
9801;SDS011;4940;50.900;4.672;2023-03-08T07:16:28;27.93;;;26.07;;
9801;SDS011;4940;50.900;4.672;2023-03-08T07:18:55;29.67;;;27.57;;
9801;SDS011;4940;50.900;4.672;2023-03-08T07:21:22;28.30;;;26.43;;
9801;SDS011;4940;50.900;4.672;2023-03-08T07:23:50;29.83;;;27.73;;
9801;SDS011;4940;50.900;4.672;2023-03-08T07:26:18;27.67;;;25.57;;
9801;SDS011;4940;50.900;4.672;2023-03-08T07:28:47;29.03;;;26.93;;
9801;SDS011;4940;50.900;4.672;2023-03-08T07:31:15;28.47;;;26.67;;
9801;SDS011;4940;50.900;4.672;2023-03-08T07:33:44;28.87;;;26.90;;
9801;SDS011;4940;50.900;4.672;2023-03-08T07:36:12;30.47;;;27.93;;
9801;SDS011;4940;50.900;4.672;2023-03-08T07:38:39;30.63;;;28.40;;
9801;SDS011;4940;50.900;4.672;2023-03-08T07:41:07;30.07;;;27.93;;
9801;SDS011;4940;50.900;4.672;2023-03-08T07:43:35;29.27;;;27.27;;
9801;SDS011;4940;50.900;4.672;2023-03-08T07:46:02;28.77;;;26.77;;
9801;SDS011;4940;50.900;4.672;2023-03-08T07:48:30;29.07;;;26.97;;
9801;SDS011;4940;50.900;4.672;2023-03-08T07:51:02;29.13;;;27.13;;
9801;SDS011;4940;50.900;4.672;2023-03-08T07:53:33;31.00;;;28.70;;
9801;SDS011;4940;50.900;4.672;2023-03-08T07:56:00;30.30;;;28.10;;
9801;SDS011;4940;50.900;4.672;2023-03-08T07:58:28;31.83;;;29.53;;
9801;SDS011;4940;50.900;4.672;2023-03-08T08:00:55;31.37;;;29.23;;
9801;SDS011;4940;50.900;4.672;2023-03-08T08:03:22;32.43;;;30.07;;
9801;SDS011;4940;50.900;4.672;2023-03-08T08:05:50;31.40;;;28.90;;
9801;SDS011;4940;50.900;4.672;2023-03-08T08:08:18;30.47;;;28.37;;
9801;SDS011;4940;50.900;4.672;2023-03-08T08:10:46;32.77;;;30.27;;
9801;SDS011;4940;50.900;4.672;2023-03-08T08:13:13;31.53;;;29.20;;
9801;SDS011;4940;50.900;4.672;2023-03-08T08:15:41;31.90;;;29.53;;
9801;SDS011;4940;50.900;4.672;2023-03-08T08:18:08;31.67;;;29.27;;
9801;SDS011;4940;50.900;4.672;2023-03-08T08:20:36;31.53;;;29.07;;
9801;SDS011;4940;50.900;4.672;2023-03-08T08:23:04;31.00;;;28.70;;
9801;SDS011;4940;50.900;4.672;2023-03-08T08:25:33;31.03;;;28.80;;
9801;SDS011;4940;50.900;4.672;2023-03-08T08:28:00;32.33;;;30.00;;
9801;SDS011;4940;50.900;4.672;2023-03-08T08:30:27;29.67;;;27.53;;
9801;SDS011;4940;50.900;4.672;2023-03-08T08:32:55;32.03;;;29.53;;
9801;SDS011;4940;50.900;4.672;2023-03-08T08:35:25;31.13;;;28.93;;
9801;SDS011;4940;50.900;4.672;2023-03-08T08:37:52;32.87;;;30.30;;
9801;SDS011;4940;50.900;4.672;2023-03-08T08:40:20;32.53;;;30.23;;
9801;SDS011;4940;50.900;4.672;2023-03-08T08:42:48;31.93;;;29.63;;
9801;SDS011;4940;50.900;4.672;2023-03-08T08:45:16;34.60;;;32.10;;
9801;SDS011;4940;50.900;4.672;2023-03-08T08:47:43;35.17;;;32.70;;
9801;SDS011;4940;50.900;4.672;2023-03-08T08:50:11;35.83;;;33.33;;
9801;SDS011;4940;50.900;4.672;2023-03-08T08:52:38;34.20;;;31.83;;
9801;SDS011;4940;50.900;4.672;2023-03-08T08:55:06;33.17;;;31.00;;
9801;SDS011;4940;50.900;4.672;2023-03-08T08:57:34;36.07;;;33.53;;
9801;SDS011;4940;50.900;4.672;2023-03-08T09:00:03;34.90;;;32.57;;
9801;SDS011;4940;50.900;4.672;2023-03-08T09:02:34;33.50;;;31.30;;
9801;SDS011;4940;50.900;4.672;2023-03-08T09:05:02;35.63;;;33.13;;
9801;SDS011;4940;50.900;4.672;2023-03-08T09:07:29;35.83;;;33.27;;
9801;SDS011;4940;50.900;4.672;2023-03-08T09:09:56;35.23;;;32.57;;
9801;SDS011;4940;50.900;4.672;2023-03-08T09:12:24;32.83;;;30.43;;
9801;SDS011;4940;50.900;4.672;2023-03-08T09:14:52;34.57;;;32.07;;
9801;SDS011;4940;50.900;4.672;2023-03-08T09:17:20;34.37;;;31.87;;
9801;SDS011;4940;50.900;4.672;2023-03-08T09:19:48;34.07;;;31.47;;
9801;SDS011;4940;50.900;4.672;2023-03-08T09:22:16;32.77;;;30.37;;
9801;SDS011;4940;50.900;4.672;2023-03-08T09:24:43;32.73;;;30.23;;
9801;SDS011;4940;50.900;4.672;2023-03-08T09:27:11;33.90;;;31.40;;
9801;SDS011;4940;50.900;4.672;2023-03-08T09:29:38;39.10;;;36.50;;
9801;SDS011;4940;50.900;4.672;2023-03-08T09:32:06;35.57;;;33.17;;
9801;SDS011;4940;50.900;4.672;2023-03-08T09:34:35;32.20;;;29.73;;
9801;SDS011;4940;50.900;4.672;2023-03-08T09:37:02;31.53;;;29.23;;
9801;SDS011;4940;50.900;4.672;2023-03-08T09:39:31;34.30;;;31.53;;
9801;SDS011;4940;50.900;4.672;2023-03-08T09:41:59;32.37;;;29.77;;
9801;SDS011;4940;50.900;4.672;2023-03-08T09:47:28;33.33;;;30.80;;
9801;SDS011;4940;50.900;4.672;2023-03-08T09:50:08;32.17;;;29.87;;
9801;SDS011;4940;50.900;4.672;2023-03-08T09:52:58;32.83;;;30.47;;
9801;SDS011;4940;50.900;4.672;2023-03-08T09:55:30;33.80;;;31.30;;
9801;SDS011;4940;50.900;4.672;2023-03-08T09:57:59;33.40;;;31.00;;
9801;SDS011;4940;50.900;4.672;2023-03-08T10:00:30;34.03;;;31.57;;
9801;SDS011;4940;50.900;4.672;2023-03-08T10:03:03;33.20;;;30.80;;
9801;SDS011;4940;50.900;4.672;2023-03-08T10:05:49;35.10;;;32.40;;
9801;SDS011;4940;50.900;4.672;2023-03-08T10:08:21;34.27;;;31.50;;
9801;SDS011;4940;50.900;4.672;2023-03-08T10:10:52;39.33;;;36.10;;
9801;SDS011;4940;50.900;4.672;2023-03-08T10:13:28;36.23;;;33.30;;
9801;SDS011;4940;50.900;4.672;2023-03-08T10:16:01;37.37;;;34.37;;
9801;SDS011;4940;50.900;4.672;2023-03-08T10:18:38;39.70;;;36.70;;
9801;SDS011;4940;50.900;4.672;2023-03-08T10:21:11;37.47;;;34.73;;
9801;SDS011;4940;50.900;4.672;2023-03-08T10:23:41;36.17;;;33.43;;
9801;SDS011;4940;50.900;4.672;2023-03-08T10:26:11;38.40;;;35.37;;
9801;SDS011;4940;50.900;4.672;2023-03-08T10:28:40;36.93;;;34.00;;
9801;SDS011;4940;50.900;4.672;2023-03-08T10:31:16;39.70;;;36.60;;
9801;SDS011;4940;50.900;4.672;2023-03-08T10:33:45;39.70;;;36.47;;
9801;SDS011;4940;50.900;4.672;2023-03-08T10:36:18;37.77;;;34.97;;
9801;SDS011;4940;50.900;4.672;2023-03-08T10:38:57;37.73;;;34.80;;
9801;SDS011;4940;50.900;4.672;2023-03-08T10:41:26;38.57;;;35.63;;
9801;SDS011;4940;50.900;4.672;2023-03-08T10:43:57;38.73;;;35.93;;
9801;SDS011;4940;50.900;4.672;2023-03-08T10:46:25;41.13;;;38.13;;
9801;SDS011;4940;50.900;4.672;2023-03-08T10:49:04;40.33;;;37.23;;
9801;SDS011;4940;50.900;4.672;2023-03-08T10:51:34;41.83;;;38.57;;
9801;SDS011;4940;50.900;4.672;2023-03-08T10:54:02;38.67;;;35.87;;
9801;SDS011;4940;50.900;4.672;2023-03-08T10:56:32;39.43;;;36.33;;
9801;SDS011;4940;50.900;4.672;2023-03-08T10:59:03;38.70;;;35.73;;
9801;SDS011;4940;50.900;4.672;2023-03-08T11:01:46;39.00;;;35.83;;
9801;SDS011;4940;50.900;4.672;2023-03-08T11:04:15;37.37;;;34.30;;
9801;SDS011;4940;50.900;4.672;2023-03-08T11:06:45;39.20;;;36.27;;
9801;SDS011;4940;50.900;4.672;2023-03-08T11:09:20;39.90;;;36.70;;
9801;SDS011;4940;50.900;4.672;2023-03-08T11:11:50;40.07;;;36.77;;
9801;SDS011;4940;50.900;4.672;2023-03-08T11:14:17;39.33;;;36.13;;
9801;SDS011;4940;50.900;4.672;2023-03-08T11:16:56;38.80;;;35.70;;
9801;SDS011;4940;50.900;4.672;2023-03-08T11:19:41;38.17;;;35.17;;
9801;SDS011;4940;50.900;4.672;2023-03-08T11:22:28;40.23;;;36.87;;
9801;SDS011;4940;50.900;4.672;2023-03-08T11:25:09;41.57;;;38.13;;
9801;SDS011;4940;50.900;4.672;2023-03-08T11:27:48;39.50;;;36.20;;
9801;SDS011;4940;50.900;4.672;2023-03-08T11:30:27;39.73;;;36.47;;
9801;SDS011;4940;50.900;4.672;2023-03-08T11:33:17;40.30;;;36.90;;
9801;SDS011;4940;50.900;4.672;2023-03-08T11:36:15;39.33;;;36.33;;
9801;SDS011;4940;50.900;4.672;2023-03-08T11:38:53;38.47;;;35.27;;
9801;SDS011;4940;50.900;4.672;2023-03-08T11:41:24;37.77;;;34.57;;
9801;SDS011;4940;50.900;4.672;2023-03-08T11:44:08;40.80;;;37.47;;
9801;SDS011;4940;50.900;4.672;2023-03-08T11:46:51;40.40;;;37.17;;
9801;SDS011;4940;50.900;4.672;2023-03-08T11:49:28;42.03;;;38.43;;
9801;SDS011;4940;50.900;4.672;2023-03-08T11:52:12;41.80;;;38.30;;
9801;SDS011;4940;50.900;4.672;2023-03-08T11:54:53;42.17;;;38.77;;
9801;SDS011;4940;50.900;4.672;2023-03-08T11:57:29;42.23;;;38.63;;
9801;SDS011;4940;50.900;4.672;2023-03-08T12:00:02;40.70;;;37.57;;
9801;SDS011;4940;50.900;4.672;2023-03-08T12:02:37;42.37;;;38.90;;
9801;SDS011;4940;50.900;4.672;2023-03-08T12:05:10;41.77;;;38.33;;
9801;SDS011;4940;50.900;4.672;2023-03-08T12:07:42;43.20;;;39.70;;
9801;SDS011;4940;50.900;4.672;2023-03-08T12:10:17;42.70;;;38.97;;
9801;SDS011;4940;50.900;4.672;2023-03-08T12:12:47;43.17;;;39.67;;
9801;SDS011;4940;50.900;4.672;2023-03-08T12:15:20;43.97;;;40.37;;
9801;SDS011;4940;50.900;4.672;2023-03-08T12:17:55;41.70;;;37.97;;
9801;SDS011;4940;50.900;4.672;2023-03-08T12:20:27;42.57;;;39.07;;
9801;SDS011;4940;50.900;4.672;2023-03-08T12:23:00;44.20;;;40.40;;
9801;SDS011;4940;50.900;4.672;2023-03-08T12:25:38;42.63;;;39.03;;
9801;SDS011;4940;50.900;4.672;2023-03-08T12:28:09;40.50;;;36.73;;
9801;SDS011;4940;50.900;4.672;2023-03-08T12:30:48;41.93;;;38.33;;
9801;SDS011;4940;50.900;4.672;2023-03-08T12:33:24;41.87;;;38.20;;
9801;SDS011;4940;50.900;4.672;2023-03-08T12:35:53;41.00;;;37.37;;
9801;SDS011;4940;50.900;4.672;2023-03-08T12:38:30;41.53;;;37.93;;
9801;SDS011;4940;50.900;4.672;2023-03-08T12:41:01;41.17;;;37.47;;
9801;SDS011;4940;50.900;4.672;2023-03-08T12:43:29;40.80;;;37.20;;
9801;SDS011;4940;50.900;4.672;2023-03-08T12:46:02;40.53;;;37.20;;
9801;SDS011;4940;50.900;4.672;2023-03-08T12:48:31;41.10;;;37.63;;
9801;SDS011;4940;50.900;4.672;2023-03-08T12:51:02;42.37;;;38.77;;
9801;SDS011;4940;50.900;4.672;2023-03-08T12:53:37;41.57;;;38.13;;
9801;SDS011;4940;50.900;4.672;2023-03-08T12:58:53;41.67;;;38.07;;
9801;SDS011;4940;50.900;4.672;2023-03-08T13:01:26;40.80;;;37.40;;
9801;SDS011;4940;50.900;4.672;2023-03-08T13:03:57;42.47;;;38.90;;
9801;SDS011;4940;50.900;4.672;2023-03-08T13:09:29;42.50;;;38.60;;
9801;SDS011;4940;50.900;4.672;2023-03-08T13:12:10;41.17;;;37.60;;
9801;SDS011;4940;50.900;4.672;2023-03-08T13:14:57;38.73;;;35.53;;
9801;SDS011;4940;50.900;4.672;2023-03-08T13:17:31;41.20;;;37.73;;
9801;SDS011;4940;50.900;4.672;2023-03-08T13:20:02;40.70;;;37.20;;
9801;SDS011;4940;50.900;4.672;2023-03-08T13:22:37;38.70;;;35.42;;
9801;SDS011;4940;50.900;4.672;2023-03-08T13:25:14;40.50;;;36.97;;
9801;SDS011;4940;50.900;4.672;2023-03-08T13:27:50;39.97;;;36.45;;
9801;SDS011;4940;50.900;4.672;2023-03-08T13:30:24;43.87;;;39.87;;
9801;SDS011;4940;50.900;4.672;2023-03-08T13:32:57;43.47;;;39.78;;
9801;SDS011;4940;50.900;4.672;2023-03-08T13:35:25;39.50;;;36.20;;
9801;SDS011;4940;50.900;4.672;2023-03-08T13:37:53;38.88;;;35.63;;
9801;SDS011;4940;50.900;4.672;2023-03-08T13:40:23;40.93;;;37.53;;
9801;SDS011;4940;50.900;4.672;2023-03-08T13:42:53;39.73;;;36.50;;
9801;SDS011;4940;50.900;4.672;2023-03-08T13:45:22;40.03;;;36.50;;
9801;SDS011;4940;50.900;4.672;2023-03-08T13:47:49;39.42;;;35.90;;
9801;SDS011;4940;50.900;4.672;2023-03-08T13:50:19;38.07;;;34.87;;
9801;SDS011;4940;50.900;4.672;2023-03-08T13:52:48;39.97;;;36.40;;
9801;SDS011;4940;50.900;4.672;2023-03-08T13:55:18;39.50;;;36.07;;
9801;SDS011;4940;50.900;4.672;2023-03-08T13:57:47;40.08;;;36.33;;
9801;SDS011;4940;50.900;4.672;2023-03-08T14:00:24;41.47;;;37.72;;
9801;SDS011;4940;50.900;4.672;2023-03-08T14:02:54;41.80;;;38.10;;
9801;SDS011;4940;50.900;4.672;2023-03-08T14:05:23;41.60;;;37.73;;
9801;SDS011;4940;50.900;4.672;2023-03-08T14:07:56;41.53;;;37.63;;
9801;SDS011;4940;50.900;4.672;2023-03-08T14:10:27;41.40;;;37.70;;
9801;SDS011;4940;50.900;4.672;2023-03-08T14:13:00;40.70;;;36.97;;
9801;SDS011;4940;50.900;4.672;2023-03-08T14:15:28;40.23;;;36.93;;
9801;SDS011;4940;50.900;4.672;2023-03-08T14:17:58;39.97;;;36.63;;
9801;SDS011;4940;50.900;4.672;2023-03-08T14:20:26;40.97;;;37.17;;
9801;SDS011;4940;50.900;4.672;2023-03-08T14:22:54;40.47;;;36.73;;
9801;SDS011;4940;50.900;4.672;2023-03-08T14:25:23;40.17;;;36.53;;
9801;SDS011;4940;50.900;4.672;2023-03-08T14:27:52;39.03;;;35.47;;
9801;SDS011;4940;50.900;4.672;2023-03-08T14:30:20;39.50;;;36.20;;
9801;SDS011;4940;50.900;4.672;2023-03-08T14:32:58;43.23;;;39.23;;
9801;SDS011;4940;50.900;4.672;2023-03-08T14:35:28;40.50;;;36.43;;
9801;SDS011;4940;50.900;4.672;2023-03-08T14:37:56;42.90;;;39.03;;
9801;SDS011;4940;50.900;4.672;2023-03-08T14:40:25;42.20;;;38.40;;
9801;SDS011;4940;50.900;4.672;2023-03-08T14:42:55;41.45;;;37.72;;
9801;SDS011;4940;50.900;4.672;2023-03-08T14:45:24;42.80;;;38.70;;
9801;SDS011;4940;50.900;4.672;2023-03-08T14:47:56;42.20;;;38.33;;
9801;SDS011;4940;50.900;4.672;2023-03-08T14:50:26;41.30;;;37.60;;
9801;SDS011;4940;50.900;4.672;2023-03-08T14:52:55;41.57;;;37.87;;
9801;SDS011;4940;50.900;4.672;2023-03-08T14:55:24;45.33;;;41.40;;
9801;SDS011;4940;50.900;4.672;2023-03-08T14:57:53;43.20;;;39.20;;
9801;SDS011;4940;50.900;4.672;2023-03-08T15:00:23;42.63;;;38.77;;
9801;SDS011;4940;50.900;4.672;2023-03-08T15:02:52;44.13;;;40.10;;
9801;SDS011;4940;50.900;4.672;2023-03-08T15:05:36;43.97;;;39.93;;
9801;SDS011;4940;50.900;4.672;2023-03-08T15:08:04;41.47;;;37.57;;
9801;SDS011;4940;50.900;4.672;2023-03-08T15:10:36;44.27;;;39.97;;
9801;SDS011;4940;50.900;4.672;2023-03-08T15:13:09;41.60;;;37.77;;
9801;SDS011;4940;50.900;4.672;2023-03-08T15:15:38;45.20;;;40.70;;